Time,TemperatureF,DewpointF,PressureIn,WindDirection,WindDirectionDegrees,WindSpeedMPH,WindSpeedGustMPH,Humidity,HourlyPrecipIn,Conditions,Clouds,dailyrainin,SoftwareType,DateUTC
2013-05-21 05:33:00,62.0,-99.9,-100.00,SSW,193,4.0,8.0,-999,0.00,,,0.04,,2013-05-21 10:33:00,
2013-05-21 05:42:00,62.0,-99.9,-100.00,SSW,193,4.0,8.0,-999,0.00,,,0.04,,2013-05-21 10:42:00,
2013-05-21 05:53:00,62.0,-99.9,-100.00,SSW,193,4.0,8.0,-999,0.00,,,0.04,,2013-05-21 10:53:00,
2013-05-21 06:03:00,62.0,-99.9,-100.00,South,184,4.0,7.0,-999,0.00,,,0.02,,2013-05-21 11:03:00,
2013-05-21 06:12:00,62.0,-99.9,-100.00,South,184,4.0,7.0,-999,0.00,,,0.02,,2013-05-21 11:12:00,
2013-05-21 06:22:00,62.0,-99.9,-100.00,South,184,4.0,7.0,-999,0.00,,,0.02,,2013-05-21 11:22:00,
2013-05-21 06:32:00,62.0,-99.9,-100.00,South,180,5.0,8.0,-999,0.00,,,0.01,,2013-05-21 11:32:00,
2013-05-21 06:42:00,62.0,-99.9,-100.00,South,180,5.0,8.0,-999,0.00,,,0.01,,2013-05-21 11:42:00,
2013-05-21 06:52:00,62.0,-99.9,-100.00,South,180,5.0,8.0,-999,0.00,,,0.01,,2013-05-21 11:52:00,
2013-05-21 07:02:00,63.0,-99.9,-100.00,South,176,4.0,6.0,-999,0.00,,,0.01,,2013-05-21 12:02:00,
2013-05-21 07:11:00,63.0,-99.9,-100.00,South,176,4.0,6.0,-999,0.00,,,0.01,,2013-05-21 12:11:00,
2013-05-21 07:22:00,63.0,-99.9,-100.00,South,176,4.0,6.0,-999,0.00,,,0.01,,2013-05-21 12:22:00,
2013-05-21 07:32:00,63.0,-99.9,-100.00,South,191,5.0,15.0,-999,0.00,,,0.01,,2013-05-21 12:32:00,
2013-05-21 07:42:00,63.0,-99.9,-100.00,South,191,5.0,15.0,-999,0.00,,,0.01,,2013-05-21 12:42:00,
2013-05-21 07:52:00,63.0,-99.9,-100.00,South,191,5.0,15.0,-999,0.00,,,0.01,,2013-05-21 12:52:00,
2013-05-21 08:01:00,63.0,-99.9,-100.00,SSW,194,6.0,9.0,-999,0.00,,,0.01,,2013-05-21 13:01:00,
2013-05-21 08:12:00,63.0,-99.9,-100.00,SSW,194,6.0,9.0,-999,0.00,,,0.01,,2013-05-21 13:12:00,
2013-05-21 08:22:00,63.0,-99.9,-100.00,SSW,194,6.0,9.0,-999,0.00,,,0.01,,2013-05-21 13:22:00,
2013-05-21 08:30:00,66.0,-99.9,-100.00,SSW,211,5.0,9.0,-999,0.00,,,0.01,,2013-05-21 13:30:00,
2013-05-21 08:32:00,65.0,-99.9,-100.00,SSW,195,5.0,12.0,-999,0.00,,,0.01,,2013-05-21 13:32:00,
2013-05-21 08:42:00,65.0,-99.9,-100.00,SSW,195,5.0,12.0,-999,0.00,,,0.01,,2013-05-21 13:42:00,
2013-05-21 08:52:00,65.0,-99.9,-100.00,SSW,195,5.0,12.0,-999,0.00,,,0.01,,2013-05-21 13:52:00,
2013-05-21 09:02:00,66.0,-99.9,-100.00,SSW,211,5.0,9.0,-999,0.00,,,0.01,,2013-05-21 14:02:00,
2013-05-21 09:11:00,66.0,-99.9,-100.00,SSW,211,5.0,9.0,-999,0.00,,,0.01,,2013-05-21 14:11:00,
2013-05-21 09:21:00,66.0,-99.9,-100.00,SSW,211,5.0,9.0,-999,0.00,,,0.01,,2013-05-21 14:21:00,
2013-05-21 09:30:00,69.0,-99.9,-100.00,South,191,7.0,8.0,-999,0.00,,,0.01,,2013-05-21 14:30:00,
2013-05-21 10:01:00,69.0,-99.9,-100.00,South,191,7.0,8.0,-999,0.00,,,0.01,,2013-05-21 15:01:00,
2013-05-21 10:11:00,69.0,-99.9,-100.00,South,191,7.0,8.0,-999,0.00,,,0.01,,2013-05-21 15:11:00,
2013-05-21 10:21:00,69.0,-99.9,-100.00,South,191,7.0,8.0,-999,0.00,,,0.01,,2013-05-21 15:21:00,
2013-05-21 11:03:00,70.0,-99.9,-100.00,SW,223,8.0,17.0,-999,0.00,,,0.01,,2013-05-21 16:03:00,
2013-05-21 11:13:00,70.0,-99.9,-100.00,SW,223,8.0,17.0,-999,0.00,,,0.01,,2013-05-21 16:13:00,
2013-05-21 11:23:00,70.0,-99.9,-100.00,SW,223,8.0,17.0,-999,0.00,,,0.01,,2013-05-21 16:23:00,
2013-05-21 11:32:00,71.0,-99.9,-100.00,SSW,203,7.0,12.0,-999,0.00,,,0.01,,2013-05-21 16:32:00,
2013-05-21 11:42:00,71.0,-99.9,-100.00,SSW,203,7.0,12.0,-999,0.00,,,0.01,,2013-05-21 16:42:00,
2013-05-21 11:53:00,71.0,-99.9,-100.00,SSW,203,7.0,12.0,-999,0.00,,,0.01,,2013-05-21 16:53:00,
2013-05-21 12:02:00,72.0,-99.9,-100.00,SW,218,9.0,16.0,-999,0.00,,,0.01,,2013-05-21 17:02:00,
2013-05-21 12:12:00,72.0,-99.9,-100.00,SW,218,9.0,16.0,-999,0.00,,,0.01,,2013-05-21 17:12:00,
2013-05-21 12:23:00,72.0,-99.9,-100.00,SW,218,9.0,16.0,-999,0.00,,,0.01,,2013-05-21 17:23:00,
2013-05-21 12:33:00,71.0,-99.9,-100.00,SW,220,9.0,12.0,-999,0.00,,,0.01,,2013-05-21 17:33:00,
2013-05-21 12:44:00,71.0,-99.9,-100.00,SW,220,9.0,12.0,-999,0.00,,,0.01,,2013-05-21 17:44:00,
2013-05-21 12:53:00,72.0,-99.9,-100.00,SW,217,9.0,14.0,-999,0.00,,,0.01,,2013-05-21 17:53:00,
2013-05-21 13:02:00,72.0,-99.9,-100.00,SW,217,9.0,14.0,-999,0.00,,,0.01,,2013-05-21 18:02:00,
2013-05-21 13:13:00,72.0,-99.9,-100.00,SW,217,9.0,14.0,-999,0.00,,,0.01,,2013-05-21 18:13:00,
2013-05-21 13:22:00,72.0,-99.9,-100.00,SW,217,9.0,14.0,-999,0.00,,,0.01,,2013-05-21 18:22:00,
2013-05-21 13:32:00,73.0,-99.9,-100.00,SW,219,10.0,13.0,-999,0.00,,,0.01,,2013-05-21 18:32:00,
2013-05-21 13:42:00,73.0,-99.9,-100.00,SW,219,10.0,13.0,-999,0.00,,,0.01,,2013-05-21 18:42:00,
2013-05-21 13:52:00,73.0,-99.9,-100.00,SW,219,10.0,13.0,-999,0.00,,,0.01,,2013-05-21 18:52:00,
2013-05-21 14:02:00,72.0,-99.9,-100.00,SW,216,6.0,10.0,-999,0.00,,,0.01,,2013-05-21 19:02:00,
2013-05-21 14:12:00,72.0,-99.9,-100.00,SW,216,6.0,10.0,-999,0.00,,,0.01,,2013-05-21 19:12:00,
2013-05-21 14:22:00,72.0,-99.9,-100.00,SW,216,6.0,10.0,-999,0.00,,,0.01,,2013-05-21 19:22:00,
2013-05-21 14:32:00,73.0,-99.9,-100.00,SW,228,9.0,13.0,-999,0.00,,,0.01,,2013-05-21 19:32:00,
2013-05-21 14:42:00,73.0,-99.9,-100.00,SW,228,9.0,13.0,-999,0.00,,,0.01,,2013-05-21 19:42:00,
2013-05-21 14:52:00,73.0,-99.9,-100.00,SW,228,9.0,13.0,-999,0.00,,,0.01,,2013-05-21 19:52:00,
2013-05-21 15:03:00,74.0,-99.9,-100.00,SW,224,9.0,15.0,-999,0.00,,,0.01,,2013-05-21 20:03:00,
2013-05-21 15:11:00,74.0,-99.9,-100.00,SW,224,9.0,15.0,-999,0.00,,,0.01,,2013-05-21 20:11:00,
2013-05-21 15:22:00,74.0,-99.9,-100.00,SW,224,9.0,15.0,-999,0.00,,,0.01,,2013-05-21 20:22:00,
2013-05-21 15:33:00,75.0,-99.9,-100.00,SSW,212,7.0,13.0,-999,0.00,,,0.01,,2013-05-21 20:33:00,
2013-05-21 15:42:00,75.0,-99.9,-100.00,SSW,212,7.0,13.0,-999,0.00,,,0.01,,2013-05-21 20:42:00,
2013-05-21 15:52:00,75.0,-99.9,-100.00,SW,214,7.0,13.0,-999,0.00,,,0.01,,2013-05-21 20:52:00,
2013-05-21 16:02:00,75.0,-99.9,-100.00,SW,214,7.0,13.0,-999,0.00,,,0.01,,2013-05-21 21:02:00,
2013-05-21 16:11:00,75.0,-99.9,-100.00,SW,214,7.0,13.0,-999,0.00,,,0.01,,2013-05-21 21:11:00,
2013-05-21 16:22:00,75.0,-99.9,-100.00,SW,214,7.0,13.0,-999,0.00,,,0.01,,2013-05-21 21:22:00,
2013-05-21 16:33:00,75.0,-99.9,-100.00,SW,223,8.0,11.0,-999,0.00,,,0.01,,2013-05-21 21:33:00,
2013-05-21 16:44:00,75.0,-99.9,-100.00,SW,223,8.0,11.0,-999,0.00,,,0.01,,2013-05-21 21:44:00,
2013-05-21 16:54:00,75.0,-99.9,-100.00,SW,223,8.0,11.0,-999,0.00,,,0.01,,2013-05-21 21:54:00,
2013-05-21 17:03:00,76.0,-99.9,-100.00,SSW,205,6.0,13.0,-999,0.00,,,0.01,,2013-05-21 22:03:00,
2013-05-21 17:13:00,76.0,-99.9,-100.00,SSW,205,6.0,13.0,-999,0.00,,,0.01,,2013-05-21 22:13:00,
2013-05-21 17:23:00,76.0,-99.9,-100.00,SSW,205,6.0,13.0,-999,0.00,,,0.01,,2013-05-21 22:23:00,
2013-05-21 17:34:00,75.0,-99.9,-100.00,SSW,211,10.0,17.0,-999,0.00,,,0.01,,2013-05-21 22:34:00,
2013-05-21 17:42:00,75.0,-99.9,-100.00,SSW,211,10.0,17.0,-999,0.00,,,0.01,,2013-05-21 22:42:00,
2013-05-21 17:53:00,75.0,-99.9,-100.00,SSW,211,10.0,17.0,-999,0.00,,,0.01,,2013-05-21 22:53:00,
2013-05-21 18:02:00,75.0,-99.9,-100.00,SW,218,6.0,9.0,-999,0.00,,,0.01,,2013-05-21 23:02:00,
2013-05-21 18:12:00,75.0,-99.9,-100.00,SW,218,6.0,9.0,-999,0.00,,,0.01,,2013-05-21 23:12:00,
2013-05-21 18:22:00,75.0,-99.9,-100.00,SW,218,6.0,9.0,-999,0.00,,,0.01,,2013-05-21 23:22:00,
2013-05-21 18:32:00,76.0,-99.9,-100.00,SW,220,7.0,13.0,-999,0.00,,,0.01,,2013-05-21 23:32:00,
2013-05-21 18:42:00,76.0,-99.9,-100.00,SW,220,7.0,13.0,-999,0.00,,,0.01,,2013-05-21 23:42:00,
2013-05-21 18:52:00,76.0,-99.9,-100.00,SW,220,7.0,13.0,-999,0.00,,,0.01,,2013-05-21 23:52:00,
2013-05-21 19:02:00,76.0,-99.9,-100.00,SSW,207,7.0,15.0,-999,0.00,,,0.01,,2013-05-22 00:02:00,
2013-05-21 19:11:00,76.0,-99.9,-100.00,SSW,207,7.0,15.0,-999,0.00,,,0.01,,2013-05-22 00:11:00,
2013-05-21 19:22:00,76.0,-99.9,-100.00,SSW,207,7.0,15.0,-999,0.00,,,0.01,,2013-05-22 00:22:00,
2013-05-21 19:32:00,76.0,-99.9,-100.00,SSW,193,5.0,8.0,-999,0.00,,,0.01,,2013-05-22 00:32:00,
2013-05-21 19:42:00,76.0,-99.9,-100.00,SSW,193,5.0,8.0,-999,0.00,,,0.01,,2013-05-22 00:42:00,
2013-05-21 19:52:00,75.0,-99.9,-100.00,SSW,205,6.0,10.0,-999,0.00,,,0.01,,2013-05-22 00:52:00,
2013-05-21 20:01:00,75.0,-99.9,-100.00,SSW,205,6.0,10.0,-999,0.00,,,0.01,,2013-05-22 01:01:00,
2013-05-21 20:11:00,75.0,-99.9,-100.00,SSW,205,6.0,10.0,-999,0.00,,,0.01,,2013-05-22 01:11:00,
2013-05-21 20:22:00,75.0,-99.9,-100.00,SSW,205,6.0,10.0,-999,0.00,,,0.01,,2013-05-22 01:22:00,
2013-05-21 20:32:00,73.0,-99.9,-100.00,SW,227,5.0,7.0,-999,0.00,,,0.01,,2013-05-22 01:32:00,
2013-05-21 20:42:00,73.0,-99.9,-100.00,SW,227,5.0,7.0,-999,0.00,,,0.01,,2013-05-22 01:42:00,
2013-05-21 20:52:00,72.0,-99.9,-100.00,SSW,203,3.0,6.0,-999,0.00,,,0.01,,2013-05-22 01:52:00,
2013-05-21 21:02:00,72.0,-99.9,-100.00,SSW,203,3.0,6.0,-999,0.00,,,0.01,,2013-05-22 02:02:00,
2013-05-21 21:12:00,72.0,-99.9,-100.00,SSW,203,3.0,6.0,-999,0.00,,,0.01,,2013-05-22 02:12:00,
2013-05-21 21:22:00,72.0,-99.9,-100.00,SSW,203,3.0,6.0,-999,0.00,,,0.01,,2013-05-22 02:22:00,
2013-05-21 21:32:00,72.0,-99.9,-100.00,SSW,193,3.0,5.0,-999,0.00,,,0.01,,2013-05-22 02:32:00,
2013-05-21 21:42:00,72.0,-99.9,-100.00,SSW,193,3.0,5.0,-999,0.00,,,0.01,,2013-05-22 02:42:00,
2013-05-21 21:52:00,72.0,-99.9,-100.00,SSW,193,3.0,5.0,-999,0.00,,,0.01,,2013-05-22 02:52:00,
2013-05-21 22:00:00,69.0,-99.9,-100.00,South,181,1.0,2.0,-999,0.00,,,0.00,,2013-05-22 03:00:00,
2013-05-21 22:02:00,70.0,-99.9,-100.00,SSE,168,2.0,2.0,-999,0.00,,,0.00,,2013-05-22 03:02:00,
2013-05-21 22:11:00,70.0,-99.9,-100.00,SSE,168,2.0,2.0,-999,0.00,,,0.00,,2013-05-22 03:11:00,
2013-05-21 22:22:00,70.0,-99.9,-100.00,SSE,168,2.0,2.0,-999,0.00,,,0.00,,2013-05-22 03:22:00,
2013-05-21 22:33:00,69.0,-99.9,-100.00,South,181,1.0,2.0,-999,0.00,,,0.00,,2013-05-22 03:33:00,
2013-05-21 22:43:00,69.0,-99.9,-100.00,South,181,1.0,2.0,-999,0.00,,,0.00,,2013-05-22 03:43:00,
2013-05-21 22:53:00,69.0,-99.9,-100.00,South,181,1.0,2.0,-999,0.00,,,0.00,,2013-05-22 03:53:00,
2013-05-21 23:33:00,68.0,-99.9,-100.00,SSW,194,2.0,4.0,-999,0.00,,,-99.99,,2013-05-22 04:33:00,
2013-05-21 23:43:00,68.0,-99.9,-100.00,SSW,194,2.0,4.0,-999,0.00,,,-99.99,,2013-05-22 04:43:00,
2013-05-21 23:53:00,68.0,-99.9,-100.00,SSW,194,2.0,4.0,-999,0.00,,,-99.99,,2013-05-22 04:53:00,